Time;durP1;ratioP1;P1;durP2;ratioP2;P2;SDS_P1;SDS_P2;PMS_P1;PMS_P2;Temp;Humidity;BMP_temperature;BMP_pressure;BME280_temperature;BME280_humidity;BME280_pressure;Samples;Min_cycle;Max_cycle;Signal;HPM_P1;HPM_P2
2023/07/09 00:00:28;;;;;;;12.13;6.90;;;;;;;27.35;42.50;97754.41;5011025;28;20920;-70
2023/07/09 00:02:54;;;;;;;9.47;5.60;;;;;;;27.25;42.73;97755.09;5010902;28;20184;-72
2023/07/09 00:05:19;;;;;;;8.70;5.43;;;;;;;27.23;42.63;97752.66;5012265;28;20251;-73
2023/07/09 00:07:45;;;;;;;10.13;5.83;;;;;;;27.19;42.88;97761.47;5004018;28;20677;-71
2023/07/09 00:10:19;;;;;;;10.97;7.47;;;;;;;27.14;42.99;97754.13;5011042;28;20192;-71
2023/07/09 00:12:45;;;;;;;11.13;5.87;;;;;;;27.12;42.96;97756.25;5009363;28;20822;-72
2023/07/09 00:15:12;;;;;;;10.30;6.13;;;;;;;27.08;43.09;97757.81;5010757;28;20463;-70
2023/07/09 00:17:39;;;;;;;13.70;5.40;;;;;;;27.03;42.62;97761.22;5010657;28;20419;-72
2023/07/09 00:20:12;;;;;;;9.80;5.50;;;;;;;27.01;43.30;97759.84;5017810;28;20426;-70
2023/07/09 00:22:38;;;;;;;8.77;5.53;;;;;;;26.96;43.21;97771.34;5009187;28;20434;-72
2023/07/09 00:25:04;;;;;;;8.47;5.00;;;;;;;26.94;43.30;97765.41;5010474;28;20446;-72
2023/07/09 00:27:32;;;;;;;10.40;6.73;;;;;;;26.92;43.28;97767.53;5009655;28;20438;-71
2023/07/09 00:29:58;;;;;;;12.10;6.40;;;;;;;26.87;43.14;97759.34;5010778;28;20203;-72
2023/07/09 00:32:25;;;;;;;6.73;5.27;;;;;;;26.89;43.23;97762.63;5010042;28;20860;-71
2023/07/09 00:34:54;;;;;;;10.13;5.07;;;;;;;26.86;43.00;97758.56;5009965;28;20237;-71
2023/07/09 00:37:21;;;;;;;8.47;6.10;;;;;;;26.86;43.08;97768.47;5010354;28;20419;-70
2023/07/09 00:39:48;;;;;;;7.47;5.77;;;;;;;26.86;43.14;97763.94;5008960;28;20470;-73
2023/07/09 00:42:17;;;;;;;11.23;8.30;;;;;;;26.86;43.20;97765.78;5017464;28;20431;-71
2023/07/09 00:44:47;;;;;;;7.07;5.80;;;;;;;26.89;43.08;97773.38;5010454;28;20477;-70
2023/07/09 00:47:18;;;;;;;8.33;5.60;;;;;;;26.91;42.99;97776.63;5009042;28;20515;-71
2023/07/09 00:49:47;;;;;;;7.50;5.23;;;;;;;26.79;43.33;97774.84;5004954;28;21036;-71
2023/07/09 00:52:24;;;;;;;6.63;5.90;;;;;;;26.72;43.79;97771.47;5014080;28;20422;-71
2023/07/09 00:54:50;;;;;;;8.50;5.10;;;;;;;26.70;43.78;97776.28;5015324;28;20986;-72
2023/07/09 00:57:21;;;;;;;9.93;7.10;;;;;;;26.66;43.70;97775.13;5008967;28;20423;-72
2023/07/09 01:00:09;;;;;;;11.00;5.47;;;;;;;26.53;44.20;97771.69;5033849;28;20449;-72
2023/07/09 01:02:36;;;;;;;7.03;5.13;;;;;;;26.45;44.40;97773.97;5016046;28;20431;-72
2023/07/09 01:05:03;;;;;;;9.03;4.60;;;;;;;26.40;44.43;97772.00;5009802;28;20566;-72
2023/07/09 01:07:29;;;;;;;7.20;4.50;;;;;;;26.37;44.35;97775.16;5008286;28;20435;-72
2023/07/09 01:09:55;;;;;;;9.57;6.03;;;;;;;26.40;44.82;97780.06;5013119;28;20441;-72
2023/07/09 01:12:21;;;;;;;7.17;5.10;;;;;;;26.40;44.72;97777.38;5017105;28;20427;-72
2023/07/09 01:14:51;;;;;;;13.87;6.03;;;;;;;26.42;44.50;97780.63;5011106;28;20224;-73
2023/07/09 01:17:17;;;;;;;9.30;5.50;;;;;;;26.40;44.41;97781.94;5015331;28;20561;-72
2023/07/09 01:19:44;;;;;;;9.10;6.00;;;;;;;26.45;44.39;97782.84;5012277;28;20514;-72
2023/07/09 01:22:15;;;;;;;8.03;5.47;;;;;;;26.44;44.55;97783.91;5016919;28;20199;-72
2023/07/09 01:24:50;;;;;;;9.40;5.13;;;;;;;26.42;44.50;97786.00;5014570;28;20489;-73
2023/07/09 01:27:17;;;;;;;9.10;5.87;;;;;;;26.42;44.37;97775.25;5009273;28;20435;-73
2023/07/09 01:29:43;;;;;;;13.73;6.20;;;;;;;26.40;44.36;97782.75;5017630;28;20528;-71
2023/07/09 01:32:10;;;;;;;9.07;6.33;;;;;;;26.37;44.46;97783.22;5008501;28;20845;-72
2023/07/09 01:34:35;;;;;;;9.83;5.70;;;;;;;26.32;44.68;97775.09;5017546;28;20465;-72
2023/07/09 01:37:00;;;;;;;9.60;5.90;;;;;;;26.20;44.77;97775.13;5013964;28;20435;-73
2023/07/09 01:39:28;;;;;;;9.23;6.43;;;;;;;26.15;44.88;97775.03;5009415;28;20633;-72
2023/07/09 01:41:54;;;;;;;11.47;6.87;;;;;;;26.15;44.72;97775.03;5013503;28;20243;-73
2023/07/09 01:44:19;;;;;;;10.40;6.80;;;;;;;26.15;44.92;97770.47;5007506;28;20441;-72
2023/07/09 01:46:45;;;;;;;10.30;7.00;;;;;;;26.17;45.02;97771.06;5009171;28;20769;-72
2023/07/09 01:49:11;;;;;;;6.67;5.90;;;;;;;26.18;44.78;97772.69;5008848;28;20185;-71
2023/07/09 01:51:37;;;;;;;9.70;5.70;;;;;;;26.16;44.84;97772.09;5008864;28;20859;-71
2023/07/09 01:54:03;;;;;;;11.70;5.80;;;;;;;26.08;44.65;97769.78;5011138;28;20284;-70
2023/07/09 01:56:29;;;;;;;14.23;5.70;;;;;;;26.01;45.07;97775.28;5009568;28;20546;-72
2023/07/09 01:59:01;;;;;;;12.30;6.50;;;;;;;26.02;45.28;97776.09;5008597;28;20263;-72
2023/07/09 02:01:30;;;;;;;8.70;6.20;;;;;;;26.00;45.29;97770.13;5010971;28;20427;-72
2023/07/09 02:03:55;;;;;;;7.10;5.30;;;;;;;26.01;45.32;97775.28;5011920;28;20497;-71
2023/07/09 02:06:24;;;;;;;7.70;5.53;;;;;;;26.02;45.08;97781.47;5006686;28;20944;-73
2023/07/09 02:08:49;;;;;;;13.50;6.87;;;;;;;26.01;45.10;97779.81;5015256;28;20225;-72
2023/07/09 02:11:15;;;;;;;5.70;4.90;;;;;;;25.94;45.09;97776.47;5012834;28;20431;-70
2023/07/09 02:13:40;;;;;;;14.53;5.63;;;;;;;25.80;45.47;97779.44;5008110;28;20184;-72
2023/07/09 02:16:06;;;;;;;7.30;4.70;;;;;;;25.77;45.20;97780.69;5002700;28;20204;-70
2023/07/09 02:18:31;;;;;;;7.57;5.27;;;;;;;25.77;45.46;97777.22;5016729;28;20759;-70
2023/07/09 02:20:57;;;;;;;8.33;5.03;;;;;;;25.67;45.42;97774.31;5008205;28;20582;-70
2023/07/09 02:23:26;;;;;;;5.70;5.07;;;;;;;25.68;45.54;97775.97;5007864;28;20189;-71
2023/07/09 02:25:52;;;;;;;8.20;5.27;;;;;;;25.77;45.45;97774.53;5007739;28;20212;-70
2023/07/09 02:28:18;;;;;;;9.10;5.50;;;;;;;25.83;45.39;97776.28;5008165;28;20503;-71
2023/07/09 02:30:43;;;;;;;6.10;4.80;;;;;;;25.87;44.91;97780.09;5008363;28;20184;-70
2023/07/09 02:33:08;;;;;;;11.93;4.57;;;;;;;25.86;44.93;97778.47;5008322;28;20188;-69
2023/07/09 02:35:35;;;;;;;9.53;5.20;;;;;;;25.81;45.13;97783.75;5010279;28;20285;-72
2023/07/09 02:38:01;;;;;;;8.00;4.40;;;;;;;25.72;45.31;97787.81;5007801;28;20188;-71
2023/07/09 02:40:27;;;;;;;9.73;4.57;;;;;;;25.64;45.70;97785.53;5006557;28;20498;-71
2023/07/09 02:42:52;;;;;;;5.97;4.70;;;;;;;25.63;45.49;97775.84;5010395;28;20506;-72
2023/07/09 02:45:18;;;;;;;5.60;5.00;;;;;;;25.66;45.69;97784.22;5008717;28;20736;-71
2023/07/09 02:47:43;;;;;;;6.40;4.63;;;;;;;25.68;45.42;97786.69;5008689;28;20181;-72
2023/07/09 02:50:09;;;;;;;7.50;4.50;;;;;;;25.63;45.13;97790.09;5008173;28;20180;-71
2023/07/09 02:52:34;;;;;;;7.73;5.27;;;;;;;25.54;45.30;97791.47;5015663;28;20196;-71
2023/07/09 02:55:00;;;;;;;8.00;5.47;;;;;;;25.58;45.49;97790.75;5009917;28;20299;-70
2023/07/09 02:57:25;;;;;;;7.00;4.87;;;;;;;25.60;45.47;97803.97;5011915;28;20204;-71
2023/07/09 02:59:51;;;;;;;6.80;5.37;;;;;;;25.61;45.40;97800.22;5008072;28;20184;-71
2023/07/09 03:02:16;;;;;;;7.50;5.20;;;;;;;25.62;45.81;97801.88;5012263;28;20188;-72
2023/07/09 03:04:41;;;;;;;5.87;4.97;;;;;;;25.65;45.34;97804.06;5008529;28;20184;-72
2023/07/09 03:07:07;;;;;;;12.33;4.20;;;;;;;25.68;45.56;97798.22;5007874;28;20204;-71
2023/07/09 03:09:32;;;;;;;7.63;4.50;;;;;;;25.69;45.61;97804.44;5006930;28;20187;-70
2023/07/09 03:11:58;;;;;;;5.90;4.43;;;;;;;25.69;45.39;97799.88;5019416;28;20195;-72
2023/07/09 03:14:23;;;;;;;9.30;4.50;;;;;;;25.59;45.72;97805.81;5010293;28;20511;-71
2023/07/09 03:16:49;;;;;;;8.30;4.70;;;;;;;25.52;46.03;97807.81;5007698;28;20250;-71
2023/07/09 03:19:14;;;;;;;8.53;4.80;;;;;;;25.53;45.89;97814.81;5002796;28;20223;-73
2023/07/09 03:21:40;;;;;;;5.27;4.50;;;;;;;25.57;45.24;97813.31;4999416;28;20181;-72
2023/07/09 03:24:07;;;;;;;7.40;4.90;;;;;;;25.58;45.12;97812.22;5005694;28;20833;-71
2023/07/09 03:26:32;;;;;;;5.90;4.60;;;;;;;25.63;45.32;97810.72;5017617;28;20270;-72
2023/07/09 03:28:57;;;;;;;8.77;4.73;;;;;;;25.70;45.08;97811.44;5003653;28;20432;-70
2023/07/09 03:31:23;;;;;;;6.00;4.37;;;;;;;25.79;44.89;97804.63;5014092;28;20187;-72
2023/07/09 03:33:50;;;;;;;4.83;4.10;;;;;;;25.82;44.65;97801.50;5010808;28;20207;-70
2023/07/09 03:36:16;;;;;;;7.83;4.37;;;;;;;25.82;45.05;97812.22;5016792;28;20259;-71
2023/07/09 03:38:41;;;;;;;5.40;3.90;;;;;;;25.79;44.95;97814.53;5011050;28;20419;-70
2023/07/09 03:41:06;;;;;;;5.97;4.50;;;;;;;25.65;45.09;97814.00;5014315;28;20208;-71
2023/07/09 03:43:32;;;;;;;8.70;4.70;;;;;;;25.39;45.95;97816.88;5020867;28;20176;-71
2023/07/09 03:45:57;;;;;;;7.50;5.10;;;;;;;25.34;45.94;97807.91;5009581;28;20232;-70
2023/07/09 03:48:23;;;;;;;5.27;3.97;;;;;;;25.31;46.36;97809.19;5010598;28;20188;-72
2023/07/09 03:50:48;;;;;;;6.73;4.47;;;;;;;25.33;45.95;97819.72;5011263;28;20776;-70
2023/07/09 03:53:15;;;;;;;5.37;4.13;;;;;;;25.33;45.89;97811.66;5010013;28;20649;-71
2023/07/09 03:55:40;;;;;;;5.87;4.40;;;;;;;25.40;45.72;97817.72;5010647;28;20553;-72
2023/07/09 03:58:06;;;;;;;7.33;5.03;;;;;;;25.42;45.96;97821.00;5010500;28;20454;-70
2023/07/09 04:00:32;;;;;;;6.97;4.77;;;;;;;25.44;45.96;97824.28;5010645;28;20195;-70
2023/07/09 04:02:58;;;;;;;5.20;4.50;;;;;;;25.39;46.04;97821.44;5017478;28;20267;-72
2023/07/09 04:05:24;;;;;;;8.87;4.40;;;;;;;25.44;45.96;97826.97;5010551;28;20443;-71
2023/07/09 04:07:50;;;;;;;6.10;4.47;;;;;;;25.47;45.61;97829.16;5010691;28;20978;-70
2023/07/09 04:10:15;;;;;;;8.03;4.67;;;;;;;25.51;45.67;97827.66;5018204;28;20693;-71
2023/07/09 04:12:41;;;;;;;6.70;4.60;;;;;;;25.54;45.59;97824.50;5009982;28;20188;-71
2023/07/09 04:15:07;;;;;;;5.77;4.57;;;;;;;25.54;45.66;97829.03;5017846;28;20224;-72
2023/07/09 04:17:33;;;;;;;7.73;4.30;;;;;;;25.52;45.46;97826.59;5010469;28;20188;-70
2023/07/09 04:19:59;;;;;;;8.00;4.83;;;;;;;25.53;45.59;97822.03;5009818;28;20489;-73
2023/07/09 04:22:25;;;;;;;10.83;4.63;;;;;;;25.50;45.64;97826.00;5010251;28;20200;-71
2023/07/09 04:24:51;;;;;;;8.17;4.43;;;;;;;25.52;46.04;97821.22;5013198;28;20210;-71
2023/07/09 04:27:18;;;;;;;6.50;4.90;;;;;;;25.53;45.90;97828.25;5009700;28;20283;-71
2023/07/09 04:29:43;;;;;;;7.80;4.90;;;;;;;25.55;46.27;97822.63;5009753;28;20546;-72
2023/07/09 04:32:12;;;;;;;5.83;4.73;;;;;;;25.57;46.08;97824.03;5012468;28;20428;-70
2023/07/09 04:34:39;;;;;;;4.97;4.13;;;;;;;25.58;46.32;97822.97;5014882;28;20661;-71
2023/07/09 04:37:08;;;;;;;6.97;4.40;;;;;;;25.54;46.62;97824.50;5009448;28;20811;-71
2023/07/09 04:39:34;;;;;;;7.23;4.47;;;;;;;25.56;46.58;97826.94;5008612;28;20423;-71
2023/07/09 04:41:59;;;;;;;8.40;5.10;;;;;;;25.53;46.51;97833.59;5012011;28;20427;-71
2023/07/09 04:44:25;;;;;;;7.03;4.60;;;;;;;25.59;46.52;97821.91;5008696;28;20188;-70
2023/07/09 04:46:50;;;;;;;6.23;5.30;;;;;;;25.70;46.44;97838.25;5009468;28;20282;-70
2023/07/09 04:49:16;;;;;;;5.77;4.47;;;;;;;25.76;45.96;97829.25;5009535;28;20200;-71
2023/07/09 04:51:41;;;;;;;5.50;4.50;;;;;;;25.80;46.09;97830.44;5009530;28;20216;-71
2023/07/09 04:54:07;;;;;;;7.20;4.70;;;;;;;25.83;45.51;97834.50;5007624;28;20215;-72
2023/07/09 04:56:32;;;;;;;7.17;4.30;;;;;;;25.83;45.95;97835.34;5024866;28;20689;-70
2023/07/09 04:58:58;;;;;;;6.63;4.77;;;;;;;25.86;45.46;97840.22;5007773;28;20248;-70
2023/07/09 05:01:23;;;;;;;5.43;4.60;;;;;;;25.87;45.91;97849.91;5010044;28;20641;-71
2023/07/09 05:03:49;;;;;;;9.00;4.60;;;;;;;25.94;45.80;97840.91;5020910;28;20318;-71
2023/07/09 05:06:14;;;;;;;5.33;4.13;;;;;;;25.96;45.87;97841.50;5010430;28;20231;-70
2023/07/09 05:08:40;;;;;;;6.97;4.73;;;;;;;26.05;45.40;97840.06;5008907;28;20192;-72
2023/07/09 05:11:06;;;;;;;6.73;5.00;;;;;;;26.15;45.18;97840.31;5009779;28;20192;-71
2023/07/09 05:13:31;;;;;;;8.73;4.63;;;;;;;26.19;45.42;97849.53;5009242;28;20530;-71
2023/07/09 05:15:57;;;;;;;7.73;4.73;;;;;;;26.26;45.41;97845.88;5008294;28;20302;-70
2023/07/09 05:18:23;;;;;;;4.83;4.33;;;;;;;26.26;44.95;97845.88;5017117;28;20283;-70
2023/07/09 05:20:49;;;;;;;7.20;4.67;;;;;;;26.29;44.95;97845.41;5005226;28;20191;-71
2023/07/09 05:23:15;;;;;;;10.43;5.10;;;;;;;26.30;45.08;97847.84;5010353;28;20420;-71
2023/07/09 05:25:40;;;;;;;6.73;4.20;;;;;;;26.40;44.87;97841.06;5014739;28;20577;-70
2023/07/09 05:28:06;;;;;;;7.83;4.80;;;;;;;26.43;44.58;97846.75;5009494;28;20570;-71
2023/07/09 05:30:31;;;;;;;7.40;4.67;;;;;;;26.47;44.65;97845.19;5007547;28;20271;-70
2023/07/09 05:33:00;;;;;;;6.90;4.57;;;;;;;26.55;44.64;97848.56;5010321;28;20185;-71
2023/07/09 05:35:26;;;;;;;8.60;4.30;;;;;;;26.63;44.28;97840.13;5008765;28;20208;-71
2023/07/09 05:37:52;;;;;;;9.63;4.70;;;;;;;26.74;44.22;97846.50;5011216;28;20840;-70
2023/07/09 05:40:18;;;;;;;8.27;4.50;;;;;;;26.81;44.41;97842.63;5009907;28;20484;-70
2023/07/09 05:42:43;;;;;;;6.03;4.63;;;;;;;26.91;43.95;97852.72;5011225;28;20422;-70
2023/07/09 05:45:09;;;;;;;6.23;4.30;;;;;;;27.03;43.81;97854.56;5008702;28;20223;-72
2023/07/09 05:47:35;;;;;;;7.43;4.97;;;;;;;27.17;43.65;97853.16;5009257;28;20184;-72
2023/07/09 05:50:00;;;;;;;7.57;5.07;;;;;;;27.27;43.65;97852.50;5007163;28;20485;-71
2023/07/09 05:52:28;;;;;;;8.43;4.73;;;;;;;27.40;43.82;97852.19;5007842;28;20238;-71
2023/07/09 05:54:54;;;;;;;7.13;4.53;;;;;;;27.53;43.59;97852.94;5006540;28;20661;-72
2023/07/09 05:57:20;;;;;;;7.70;4.67;;;;;;;27.65;43.23;97850.94;5008393;28;20474;-71
2023/07/09 05:59:45;;;;;;;7.80;4.50;;;;;;;27.78;43.13;97855.19;5008580;28;20455;-70
2023/07/09 06:02:13;;;;;;;6.70;4.50;;;;;;;27.95;42.90;97857.81;5014133;28;20180;-70
2023/07/09 06:04:38;;;;;;;8.17;4.60;;;;;;;28.03;42.57;97857.38;5007471;28;20270;-71
2023/07/09 06:07:04;;;;;;;7.17;4.93;;;;;;;28.17;42.34;97862.44;5008915;28;20519;-70
2023/07/09 06:09:30;;;;;;;9.73;4.40;;;;;;;28.26;41.84;97854.72;5008606;28;20214;-71
2023/07/09 06:11:56;;;;;;;6.20;4.97;;;;;;;28.41;41.90;97857.59;5007989;28;20202;-71
2023/07/09 06:14:21;;;;;;;7.50;4.70;;;;;;;28.53;41.74;97851.25;5008374;28;20487;-70
2023/07/09 06:16:46;;;;;;;5.10;4.33;;;;;;;28.66;41.79;97856.22;5014848;28;20232;-72
2023/07/09 06:19:12;;;;;;;6.07;5.10;;;;;;;28.77;41.22;97855.28;5010787;28;20184;-70
2023/07/09 06:21:39;;;;;;;6.87;4.33;;;;;;;28.88;41.21;97850.00;5008333;28;20206;-71
2023/07/09 06:24:05;;;;;;;7.03;4.70;;;;;;;29.04;41.06;97850.94;5007611;28;20192;-71
2023/07/09 06:26:31;;;;;;;9.10;5.03;;;;;;;29.20;40.66;97854.56;5005572;28;20458;-71
2023/07/09 06:28:56;;;;;;;8.23;4.73;;;;;;;29.36;40.37;97860.94;5009879;28;20442;-70
2023/07/09 06:31:24;;;;;;;7.33;3.87;;;;;;;29.50;39.70;97864.78;5007626;28;20266;-71
2023/07/09 06:33:50;;;;;;;8.30;4.47;;;;;;;29.65;39.87;97860.56;5014354;28;20175;-72
2023/07/09 06:36:17;;;;;;;6.47;4.50;;;;;;;29.80;39.56;97855.25;5009864;28;21079;-72
2023/07/09 06:38:42;;;;;;;6.10;4.27;;;;;;;29.95;39.15;97851.84;5007610;28;20454;-72
2023/07/09 06:41:08;;;;;;;6.37;4.67;;;;;;;30.07;38.34;97859.75;5005870;28;20503;-71
2023/07/09 06:43:34;;;;;;;7.30;4.77;;;;;;;30.19;37.87;97848.69;5007560;28;20555;-72
2023/07/09 06:46:00;;;;;;;9.13;4.70;;;;;;;30.35;37.76;97863.09;5007358;28;20207;-73
2023/07/09 06:48:27;;;;;;;5.57;4.20;;;;;;;30.53;38.22;97850.16;5007031;28;20435;-72
2023/07/09 06:50:55;;;;;;;9.27;4.20;;;;;;;30.70;37.64;97856.16;5010437;28;20427;-71
2023/07/09 06:53:21;;;;;;;4.67;3.90;;;;;;;30.85;37.20;97851.88;5007878;28;20466;-73
2023/07/09 06:55:48;;;;;;;6.20;4.43;;;;;;;31.01;37.28;97861.59;5018888;28;20475;-73
2023/07/09 06:58:17;;;;;;;5.20;4.47;;;;;;;31.13;36.54;97858.66;5008354;28;20519;-73
2023/07/09 07:00:43;;;;;;;6.73;4.40;;;;;;;31.26;36.62;97857.28;5008913;28;20431;-72
2023/07/09 07:03:09;;;;;;;5.57;4.73;;;;;;;31.39;36.00;97855.94;5009342;28;20423;-72
2023/07/09 07:05:34;;;;;;;4.67;4.10;;;;;;;31.51;35.35;97858.34;5008010;28;20197;-71
2023/07/09 07:08:00;;;;;;;5.03;4.53;;;;;;;31.62;34.70;97862.69;5010454;28;20641;-71
2023/07/09 07:10:26;;;;;;;5.00;3.87;;;;;;;31.75;34.25;97855.91;5014332;28;20276;-71
2023/07/09 07:12:52;;;;;;;10.53;4.00;;;;;;;31.89;34.23;97853.41;5010832;28;20423;-72
2023/07/09 07:15:18;;;;;;;5.83;3.93;;;;;;;32.00;33.45;97849.59;5011446;28;20278;-70
2023/07/09 07:17:45;;;;;;;5.43;3.63;;;;;;;32.14;33.25;97854.41;5020087;28;20189;-71
2023/07/09 07:20:11;;;;;;;10.20;4.27;;;;;;;32.26;33.38;97854.91;5011871;28;20807;-72
2023/07/09 07:22:37;;;;;;;5.10;4.17;;;;;;;32.39;33.00;97850.78;5008899;28;21027;-72
2023/07/09 07:25:04;;;;;;;5.57;4.10;;;;;;;32.39;31.97;97855.38;5011879;28;20542;-71
2023/07/09 07:27:29;;;;;;;6.93;4.13;;;;;;;32.53;32.11;97850.97;5011011;28;20304;-70
2023/07/09 07:29:55;;;;;;;7.03;3.57;;;;;;;32.66;31.97;97846.84;5012068;28;20808;-72
2023/07/09 07:32:20;;;;;;;8.50;4.00;;;;;;;32.79;31.46;97839.94;5020357;28;20658;-72
2023/07/09 07:34:47;;;;;;;5.20;3.23;;;;;;;32.95;31.25;97846.13;5015532;28;20204;-72
2023/07/09 07:37:13;;;;;;;5.60;3.83;;;;;;;33.08;31.37;97847.38;5011455;28;20572;-72
2023/07/09 07:39:38;;;;;;;5.60;3.87;;;;;;;33.21;31.31;97846.72;5005630;28;20419;-72
2023/07/09 07:42:04;;;;;;;7.73;3.60;;;;;;;33.33;30.52;97837.38;5016160;28;20275;-72
2023/07/09 07:44:29;;;;;;;4.57;3.83;;;;;;;33.33;30.18;97846.31;5011184;28;20192;-72
2023/07/09 07:46:55;;;;;;;8.73;3.80;;;;;;;33.46;30.20;97839.44;5011313;28;20290;-73
2023/07/09 07:49:20;;;;;;;9.83;4.43;;;;;;;33.58;29.93;97841.78;5010773;28;20219;-72
2023/07/09 07:51:46;;;;;;;6.00;3.97;;;;;;;33.71;30.09;97836.75;5010775;28;20736;-71
2023/07/09 07:54:11;;;;;;;4.30;3.90;;;;;;;33.77;29.79;97833.69;5011130;28;20298;-73
2023/07/09 07:56:37;;;;;;;4.80;3.73;;;;;;;33.83;29.12;97832.53;5010246;28;20220;-73
2023/07/09 07:59:03;;;;;;;5.37;3.47;;;;;;;33.98;29.53;97833.47;5019728;28;20185;-72
2023/07/09 08:01:28;;;;;;;4.93;3.80;;;;;;;34.10;29.41;97822.16;5011104;28;20189;-73
2023/07/09 08:03:54;;;;;;;5.10;4.03;;;;;;;34.23;29.18;97823.38;5011453;28;20679;-73
2023/07/09 08:06:20;;;;;;;5.30;3.67;;;;;;;34.35;29.24;97826.47;5018462;28;20196;-72
2023/07/09 08:08:46;;;;;;;6.20;3.43;;;;;;;34.46;28.98;97829.88;5010940;28;20649;-73
2023/07/09 08:11:11;;;;;;;7.10;3.97;;;;;;;34.61;28.55;97828.84;5013898;28;20485;-73
2023/07/09 08:13:38;;;;;;;5.97;4.10;;;;;;;34.70;28.56;97837.94;5010571;28;20792;-73
2023/07/09 08:16:05;;;;;;;6.67;4.40;;;;;;;34.81;28.44;97827.72;5010689;28;20212;-73
2023/07/09 08:18:30;;;;;;;6.20;3.53;;;;;;;34.91;28.08;97826.72;5020695;28;20465;-73
2023/07/09 08:20:56;;;;;;;7.17;3.30;;;;;;;34.86;27.74;97819.47;5010386;28;20514;-72
2023/07/09 08:23:21;;;;;;;5.00;4.10;;;;;;;35.00;28.02;97824.16;5010116;28;20271;-72
2023/07/09 08:25:57;;;;;;;6.10;5.50;;;;;;;35.12;27.68;97821.78;5016918;28;20298;-73
2023/07/09 08:28:23;;;;;;;7.20;4.23;;;;;;;35.20;27.78;97826.56;5010719;28;20187;-72
2023/07/09 08:30:51;;;;;;;6.40;3.63;;;;;;;35.30;27.36;97830.19;5010171;28;20811;-70
2023/07/09 08:33:17;;;;;;;6.47;3.90;;;;;;;35.45;27.46;97829.13;5009907;28;20188;-72
2023/07/09 08:35:43;;;;;;;5.83;4.33;;;;;;;35.35;27.30;97820.03;5011693;28;20542;-72
2023/07/09 08:38:09;;;;;;;7.23;4.27;;;;;;;35.44;27.62;97822.06;5010604;28;20184;-72
2023/07/09 08:40:40;;;;;;;5.30;3.53;;;;;;;35.65;27.29;97825.22;5021472;28;20666;-73
2023/07/09 08:43:13;;;;;;;9.90;4.27;;;;;;;35.76;26.77;97825.84;5018110;28;20190;-71
2023/07/09 08:45:48;;;;;;;5.90;4.03;;;;;;;35.94;26.77;97829.59;5008777;28;20884;-73
2023/07/09 08:48:32;;;;;;;5.47;3.57;;;;;;;35.96;26.40;97828.16;5010142;28;20430;-72
2023/07/09 08:51:02;;;;;;;4.93;3.37;;;;;;;36.15;26.55;97826.41;5009282;28;20531;-72
2023/07/09 08:53:49;;;;;;;7.63;4.00;;;;;;;36.29;25.89;97833.47;5009516;28;20506;-72
2023/07/09 08:56:16;;;;;;;6.63;4.10;;;;;;;36.19;25.91;97836.41;5006927;28;20459;-73
2023/07/09 08:58:43;;;;;;;6.73;4.20;;;;;;;36.35;25.87;97834.19;5018452;28;20435;-72
2023/07/09 09:01:20;;;;;;;6.63;4.03;;;;;;;36.48;25.79;97829.81;5012201;28;20438;-72
2023/07/09 09:03:59;;;;;;;8.43;5.20;;;;;;;36.65;25.96;97837.34;5026494;28;20421;-72
2023/07/09 09:06:30;;;;;;;7.37;4.13;;;;;;;36.76;25.69;97837.09;5008972;28;20465;-73
2023/07/09 09:08:59;;;;;;;9.40;4.00;;;;;;;36.84;25.90;97833.63;5010367;28;20432;-72
2023/07/09 09:11:46;;;;;;;7.53;3.90;;;;;;;36.92;24.72;97843.03;5012595;28;20419;-72
2023/07/09 09:14:33;;;;;;;4.13;3.50;;;;;;;36.82;24.33;97831.19;5005971;28;20526;-73
2023/07/09 09:16:58;;;;;;;6.03;3.40;;;;;;;36.87;24.24;97831.09;5012657;28;20474;-73
2023/07/09 09:19:36;;;;;;;4.23;3.73;;;;;;;36.89;24.28;97836.22;4998890;28;20503;-71
2023/07/09 09:22:05;;;;;;;4.70;3.20;;;;;;;37.04;24.24;97846.00;5008983;28;20282;-71
2023/07/09 09:24:35;;;;;;;6.07;3.60;;;;;;;36.89;24.44;97837.03;5011054;28;20509;-73
2023/07/09 09:27:01;;;;;;;4.80;3.53;;;;;;;37.17;24.20;97836.13;5008264;28;20466;-73
2023/07/09 09:29:26;;;;;;;6.57;3.90;;;;;;;37.32;24.05;97834.91;5008382;28;20434;-72
2023/07/09 09:31:55;;;;;;;3.50;3.07;;;;;;;37.45;23.50;97830.50;5009259;28;20267;-72
2023/07/09 09:34:28;;;;;;;5.13;3.50;;;;;;;37.59;23.57;97836.69;5017456;28;20221;-72
2023/07/09 09:36:56;;;;;;;5.93;3.20;;;;;;;37.72;22.89;97826.75;5013027;28;20982;-72
2023/07/09 09:39:24;;;;;;;6.70;3.47;;;;;;;37.85;23.19;97835.16;5017769;28;20946;-72
2023/07/09 09:41:56;;;;;;;5.90;3.53;;;;;;;37.96;22.98;97831.03;5014029;28;20512;-72
2023/07/09 09:44:29;;;;;;;4.43;3.27;;;;;;;38.09;22.74;97837.50;5009065;28;20433;-72
2023/07/09 09:46:57;;;;;;;3.60;3.10;;;;;;;38.16;22.29;97832.34;5007062;28;20434;-72
2023/07/09 09:49:23;;;;;;;10.03;3.67;;;;;;;38.26;22.18;97832.03;5014906;28;20427;-72
2023/07/09 09:51:48;;;;;;;5.20;3.27;;;;;;;38.41;22.05;97836.28;5007172;28;20427;-72
2023/07/09 09:54:24;;;;;;;3.23;2.50;;;;;;;38.37;20.83;97832.56;5008925;28;20190;-72
2023/07/09 09:56:50;;;;;;;8.07;3.00;;;;;;;38.29;21.48;97830.63;5005988;28;20214;-72
2023/07/09 09:59:21;;;;;;;5.97;3.20;;;;;;;38.46;21.52;97823.56;5008318;28;20422;-73
2023/07/09 10:01:48;;;;;;;6.03;3.53;;;;;;;38.62;21.31;97816.47;5008238;28;20198;-72
2023/07/09 10:04:17;;;;;;;4.17;3.27;;;;;;;38.72;21.00;97812.59;5007409;28;20427;-72
2023/07/09 10:06:50;;;;;;;11.83;3.50;;;;;;;38.43;20.77;97816.00;5015557;28;20438;-73
2023/07/09 10:09:34;;;;;;;3.73;3.37;;;;;;;38.52;20.98;97812.13;5007460;28;20422;-73
2023/07/09 10:12:26;;;;;;;8.90;3.40;;;;;;;38.80;20.97;97814.53;5008156;28;20423;-72
2023/07/09 10:15:00;;;;;;;7.33;3.37;;;;;;;38.95;20.55;97813.22;5006550;28;20517;-72
2023/07/09 10:17:41;;;;;;;7.43;3.23;;;;;;;38.98;20.58;97807.09;5007546;28;20415;-72
2023/07/09 10:20:42;;;;;;;6.60;3.97;;;;;;;39.15;20.58;97803.50;5008992;28;20937;-72
2023/07/09 10:23:34;;;;;;;6.30;3.90;;;;;;;39.31;20.03;97794.78;5002259;28;20975;-72
2023/07/09 10:26:15;;;;;;;3.70;3.37;;;;;;;39.33;20.01;97796.06;5007570;28;20441;-72
2023/07/09 10:28:59;;;;;;;4.83;3.10;;;;;;;39.46;20.24;97801.66;5007132;28;20425;-72
2023/07/09 10:31:50;;;;;;;6.87;3.27;;;;;;;39.66;20.52;97800.13;5008173;28;20422;-72
2023/07/09 10:34:30;;;;;;;6.13;3.23;;;;;;;39.74;20.10;97793.00;5002001;28;20421;-71
2023/07/09 10:37:41;;;;;;;7.40;3.07;;;;;;;39.90;19.81;97785.00;5010765;28;20434;-71
2023/07/09 10:40:10;;;;;;;5.60;3.13;;;;;;;39.84;19.30;97787.13;5008370;28;20533;-72
2023/07/09 10:42:37;;;;;;;7.90;3.37;;;;;;;39.78;19.02;97789.28;5011028;28;20410;-72
2023/07/09 10:45:26;;;;;;;4.20;2.90;;;;;;;39.73;18.87;97796.88;5020585;28;20437;-72
2023/07/09 10:48:14;;;;;;;7.37;3.13;;;;;;;39.74;19.07;97782.88;5011068;28;20801;-72
2023/07/09 10:50:42;;;;;;;5.90;3.43;;;;;;;39.79;19.07;97773.63;5011777;28;20419;-72
2023/07/09 10:53:26;;;;;;;4.83;2.90;;;;;;;39.92;19.49;97777.25;5010789;28;20759;-72
2023/07/09 10:55:55;;;;;;;4.47;3.20;;;;;;;40.01;18.88;97782.69;5009852;28;20459;-72
2023/07/09 10:58:46;;;;;;;3.57;3.10;;;;;;;39.91;18.48;97776.47;5011472;28;20832;-71
2023/07/09 11:01:14;;;;;;;10.27;2.73;;;;;;;39.96;17.84;97766.41;5001995;28;20458;-71
2023/07/09 11:03:51;;;;;;;5.93;3.30;;;;;;;39.17;18.28;97764.84;5013281;28;20215;-72
2023/07/09 11:06:22;;;;;;;4.53;3.03;;;;;;;39.61;18.89;97764.69;5010945;28;21025;-72
2023/07/09 11:08:49;;;;;;;4.27;2.80;;;;;;;39.93;18.28;97763.22;5020865;28;20237;-72
2023/07/09 11:11:24;;;;;;;5.00;3.10;;;;;;;40.19;18.19;97764.19;5012350;28;20196;-72
2023/07/09 11:13:54;;;;;;;3.33;3.03;;;;;;;40.37;17.48;97756.59;5009212;28;20218;-72
2023/07/09 11:16:40;;;;;;;5.10;2.90;;;;;;;40.47;16.98;97758.94;5012204;28;20266;-72
2023/07/09 11:19:10;;;;;;;5.23;2.60;;;;;;;40.62;17.11;97759.47;5012363;28;20546;-72
2023/07/09 11:21:46;;;;;;;4.03;3.00;;;;;;;40.74;16.94;97762.25;5018248;28;20180;-71
2023/07/09 11:24:30;;;;;;;4.63;2.60;;;;;;;40.51;16.63;97762.63;5011807;28;20265;-71
2023/07/09 11:26:55;;;;;;;5.90;3.33;;;;;;;40.48;16.37;97759.75;5010737;28;20215;-71
2023/07/09 11:29:23;;;;;;;6.00;3.23;;;;;;;40.61;16.35;97755.09;5011105;28;20221;-72
2023/07/09 11:31:49;;;;;;;6.10;3.37;;;;;;;40.75;16.24;97754.84;5011325;28;20194;-72
2023/07/09 11:34:14;;;;;;;6.28;3.17;;;;;;;40.92;15.81;97751.88;5010454;28;20183;-72
2023/07/09 11:36:55;;;;;;;5.40;3.55;;;;;;;40.95;16.01;97756.69;5009920;28;20310;-72